CDT,Max TemperatureF,Mean TemperatureF,Min TemperatureF,Max Dew PointF,MeanDew PointF,Min DewpointF,Max Humidity, Mean Humidity, Min Humidity, Max Sea Level PressureIn, Mean Sea Level PressureIn, Min Sea Level PressureIn, Max VisibilityMiles, Mean VisibilityMiles, Min VisibilityMiles, Max Wind SpeedMPH, Mean Wind SpeedMPH, Max Gust SpeedMPH,PrecipitationIn, CloudCover, Events, WindDirDegrees
2013-5-1,82,68,55,57,51,45,82,56,39,30.11,30.07,30.01,10,10,10,12,3,,0.00,1,,133
2013-5-2,78,68,57,54,52,48,72,57,42,30.16,30.09,30.03,10,10,9,13,4,16,0.00,2,,186
2013-5-3,75,64,51,54,51,43,72,58,41,30.03,29.91,29.79,10,10,6,23,8,31,0.10,6,,155
2013-5-4,48,47,44,39,37,36,76,69,62,30.00,29.95,29.88,10,10,5,14,7,,1.22,8,,235
2013-5-5,57,52,46,46,43,36,82,70,63,29.97,29.87,29.84,10,10,5,14,6,16,0.38,8,,38
2013-5-6,64,55,46,50,46,43,87,72,56,29.93,29.87,29.82,10,10,5,15,8,,0.02,7,,16
2013-5-7,75,62,51,55,49,43,77,66,50,30.00,29.96,29.92,10,9,1,21,3,26,0.56,5,Thunderstorm,348
2013-5-8,80,66,53,55,51,45,82,61,39,30.04,30.00,29.95,10,8,0,8,2,,0.09,2,,294
2013-5-9,78,69,60,59,54,50,72,61,44,30.03,29.97,29.90,10,10,9,24,5,34,0.05,4,Thunderstorm,199
2013-5-10,71,66,59,59,54,48,73,67,60,29.95,29.88,29.83,10,10,6,14,7,20,0.16,5,,239
2013-5-11,69,61,53,50,43,30,72,56,38,30.11,29.99,29.94,10,10,7,16,8,25,0.00,5,,314
2013-5-12,60,51,42,36,31,27,66,45,31,30.20,30.16,30.11,10,10,10,17,7,23,0.00,0,,314
2013-5-13,68,54,39,41,34,30,81,46,26,30.25,30.19,30.13,10,10,10,12,3,17,0.00,0,,240
2013-5-14,84,68,51,57,48,34,54,48,37,30.12,29.98,29.88,10,10,10,23,11,29,0.00,0,,198
2013-5-15,86,77,68,57,54,50,60,48,37,30.01,29.95,29.90,10,10,10,20,14,25,0.00,0,,227
2013-5-16,84,73,64,57,53,48,68,51,39,29.97,29.93,29.90,10,10,9,17,8,24,0.00,2,,230
2013-5-17,71,68,64,57,55,54,73,64,57,30.03,29.99,29.96,10,10,7,13,5,20,0.13,7,,142
2013-5-18,78,71,64,61,57,55,73,65,53,30.01,29.97,29.94,10,10,5,7,4,,0.00,6,,75
2013-5-19,89,76,64,68,62,55,88,64,46,29.96,29.90,29.83,10,9,5,15,4,17,0.00,4,,175
2013-5-20,87,75,64,64,62,59,88,62,45,29.97,29.90,29.83,10,10,8,18,11,24,0.00,2,,188
2013-5-21,78,69,60,63,58,54,77,63,53,29.94,29.85,29.79,10,10,7,24,11,31,0.78,3,Thunderstorm,197
2013-5-22,77,70,64,61,56,54,73,63,47,29.84,29.79,29.76,10,10,10,21,11,28,0.10,5,,220
2013-5-23,69,61,53,55,49,39,73,61,46,30.19,29.99,29.85,10,10,8,20,8,26,0.09,6,,292
2013-5-24,66,56,46,45,39,30,71,54,40,30.37,30.29,30.20,10,10,10,13,8,20,0.00,1,,359
2013-5-25,73,58,46,48,43,37,71,52,35,30.37,30.28,30.16,10,10,9,10,2,,0.00,2,,93
2013-5-26,78,66,55,54,49,45,67,53,41,30.25,30.18,30.09,10,10,9,12,8,,0.00,5,,121
2013-5-27,86,73,60,61,54,48,64,51,37,30.10,30.02,29.94,10,10,10,23,10,28,0.00,2,,183
2013-5-28,87,78,68,63,58,52,64,52,40,30.01,29.96,29.91,10,10,10,24,12,30,0.00,1,,197
2013-5-29,87,76,64,61,56,50,60,48,37,30.07,30.01,29.96,10,10,10,22,10,31,0.00,1,,184
2013-5-30,87,78,69,63,60,55,69,56,43,30.05,30.00,29.94,10,10,6,23,12,31,0.23,3,Thunderstorm,172
2013-5-31,78,74,69,64,62,59,73,65,57,29.99,29.94,29.87,10,10,10,21,12,30,0.21,6,Thunderstorm,183